createdAt,value
2018-02-25T00:00:26.979Z,33.50
2018-02-25T00:02:55.253Z,33.50
2018-02-25T00:05:23.559Z,33.50
2018-02-25T00:07:51.887Z,33.50
2018-02-25T00:10:20.930Z,33.60
2018-02-25T00:12:50.656Z,33.60
2018-02-25T00:15:18.930Z,33.60
2018-02-25T00:17:47.221Z,33.60
2018-02-25T00:20:15.505Z,33.60
2018-02-25T00:22:44.083Z,33.60
2018-02-25T00:25:12.350Z,33.70
2018-02-25T00:27:40.630Z,33.60
2018-02-25T00:30:08.905Z,33.60
2018-02-25T00:32:37.194Z,33.50
2018-02-25T00:35:05.523Z,33.50
2018-02-25T00:37:33.829Z,33.50
2018-02-25T00:40:02.538Z,33.30
2018-02-25T00:42:31.709Z,33.40
2018-02-25T00:44:59.974Z,33.40
2018-02-25T00:47:28.270Z,33.50
2018-02-25T00:49:58.446Z,33.40
2018-02-25T00:52:26.769Z,33.30
2018-02-25T00:54:55.059Z,33.30
2018-02-25T00:57:23.361Z,33.30
2018-02-25T00:59:51.619Z,33.30
2018-02-25T01:02:20.208Z,33.20
2018-02-25T01:04:48.486Z,33.20
2018-02-25T01:07:16.744Z,33.10
2018-02-25T01:09:45.037Z,33.10
2018-02-25T01:12:13.315Z,33.10
2018-02-25T01:14:41.654Z,33.00
2018-02-25T01:17:10.875Z,33.10
2018-02-25T01:19:39.172Z,33.10
2018-02-25T01:22:07.469Z,33.00
2018-02-25T01:24:35.761Z,32.90
2018-02-25T01:27:04.810Z,32.90
2018-02-25T01:29:33.418Z,32.90
2018-02-25T01:32:01.696Z,32.80
2018-02-25T01:34:29.957Z,32.80
2018-02-25T01:36:58.274Z,32.80
2018-02-25T01:39:27.315Z,32.80
2018-02-25T01:41:55.644Z,32.80
2018-02-25T01:44:23.934Z,32.80
2018-02-25T01:46:52.984Z,32.70
2018-02-25T01:49:21.288Z,32.70
2018-02-25T01:51:49.906Z,32.80
2018-02-25T01:54:18.178Z,32.70
2018-02-25T01:56:46.456Z,32.70
2018-02-25T01:59:14.833Z,32.70
2018-02-25T02:01:43.106Z,32.70
2018-02-25T02:04:12.152Z,32.80
2018-02-25T02:06:40.425Z,32.80
2018-02-25T02:09:08.991Z,32.80
2018-02-25T02:11:37.247Z,32.80
2018-02-25T02:14:05.541Z,32.80
2018-02-25T02:16:33.845Z,32.80
2018-02-25T02:19:02.152Z,32.80
2018-02-25T02:21:30.469Z,32.80
2018-02-25T02:23:58.861Z,32.90
2018-02-25T02:26:27.171Z,32.80
2018-02-25T02:28:55.445Z,32.90
2018-02-25T02:31:23.737Z,32.80
2018-02-25T02:33:52.151Z,32.80
2018-02-25T02:36:20.800Z,32.90
2018-02-25T02:38:49.067Z,33.00
2018-02-25T02:41:17.356Z,32.90
2018-02-25T02:43:45.653Z,32.90
2018-02-25T02:46:14.704Z,33.10
2018-02-25T02:48:42.993Z,33.10
2018-02-25T02:51:11.287Z,33.10
2018-02-25T02:53:39.632Z,33.10
2018-02-25T02:56:08.029Z,33.30
2018-02-25T02:58:36.642Z,33.30
2018-02-25T03:01:04.932Z,33.40
2018-02-25T03:03:33.978Z,33.50
2018-02-25T03:06:02.295Z,33.50
2018-02-25T03:08:30.588Z,33.50
2018-02-25T03:10:59.656Z,33.50
2018-02-25T03:13:27.930Z,33.50
2018-02-25T03:15:56.228Z,33.60
2018-02-25T03:18:24.501Z,33.70
2018-02-25T03:20:52.834Z,33.60
2018-02-25T03:23:21.120Z,33.70
2018-02-25T03:25:49.421Z,33.70
2018-02-25T03:28:17.688Z,33.70
2018-02-25T03:30:46.024Z,33.70
2018-02-25T03:33:14.324Z,33.70
2018-02-25T03:35:42.601Z,33.70
2018-02-25T03:38:11.319Z,33.80
2018-02-25T03:40:39.577Z,33.80
2018-02-25T03:43:07.850Z,33.70
2018-02-25T03:45:36.146Z,33.80
2018-02-25T03:48:04.438Z,33.70
2018-02-25T03:50:33.240Z,33.70
2018-02-25T03:53:01.514Z,33.80
2018-02-25T03:55:29.833Z,33.70
2018-02-25T03:57:58.907Z,33.80
2018-02-25T04:00:27.465Z,33.80
2018-02-25T04:02:55.775Z,33.70
2018-02-25T04:05:24.086Z,33.70
2018-02-25T04:07:52.385Z,33.70
2018-02-25T04:10:20.656Z,33.70
2018-02-25T04:12:48.954Z,33.70
2018-02-25T04:15:17.206Z,33.80
2018-02-25T04:17:45.506Z,34.40
2018-02-25T04:20:13.780Z,33.80
2018-02-25T04:22:42.328Z,33.90
2018-02-25T04:25:10.612Z,33.90
2018-02-25T04:27:38.923Z,33.90
2018-02-25T04:30:08.088Z,33.80
2018-02-25T04:32:38.353Z,34.00
2018-02-25T04:35:06.750Z,34.00
2018-02-25T04:37:35.808Z,34.10
2018-02-25T04:40:04.369Z,34.10
2018-02-25T04:42:32.669Z,34.10
2018-02-25T04:45:00.989Z,34.10
2018-02-25T04:47:29.283Z,34.20
2018-02-25T04:49:57.582Z,34.20
2018-02-25T04:52:25.870Z,34.30
2018-02-25T04:54:54.132Z,34.20
2018-02-25T04:57:22.424Z,34.40
2018-02-25T04:59:51.479Z,34.40
2018-02-25T05:02:20.532Z,34.60
2018-02-25T05:04:48.805Z,34.50
2018-02-25T05:07:17.414Z,34.50
2018-02-25T05:09:45.682Z,34.60
2018-02-25T05:12:13.950Z,34.60
2018-02-25T05:14:42.251Z,34.50
2018-02-25T05:17:10.520Z,34.60
2018-02-25T05:19:38.812Z,34.60
2018-02-25T05:22:07.834Z,34.70
2018-02-25T05:24:36.490Z,34.70
2018-02-25T05:27:04.746Z,35.50
2018-02-25T05:29:33.017Z,34.80
2018-02-25T05:32:01.409Z,34.70
2018-02-25T05:34:29.653Z,34.70
2018-02-25T05:36:57.949Z,34.80
2018-02-25T05:39:26.247Z,34.90
2018-02-25T05:41:54.544Z,34.90
2018-02-25T05:44:23.885Z,34.80
2018-02-25T05:46:52.181Z,34.80
2018-02-25T05:49:20.446Z,34.80
2018-02-25T05:51:48.736Z,34.80
2018-02-25T05:54:16.993Z,34.90
2018-02-25T05:56:45.610Z,34.90
2018-02-25T05:59:13.896Z,34.90
2018-02-25T06:01:42.177Z,34.90
2018-02-25T06:04:10.492Z,35.00
2018-02-25T06:06:38.749Z,35.00
2018-02-25T06:09:07.419Z,35.20
2018-02-25T06:11:35.677Z,35.20
2018-02-25T06:14:03.957Z,35.10
2018-02-25T06:16:32.259Z,35.20
2018-02-25T06:19:00.509Z,35.10
2018-02-25T06:21:28.811Z,35.20
2018-02-25T06:23:57.082Z,35.20
2018-02-25T06:26:25.648Z,35.20
2018-02-25T06:28:53.981Z,35.20
2018-02-25T06:31:22.193Z,35.20
2018-02-25T06:33:50.494Z,35.20
2018-02-25T06:36:18.779Z,35.30
2018-02-25T06:38:47.081Z,35.30
2018-02-25T06:41:16.113Z,35.30
2018-02-25T06:43:44.428Z,35.30
2018-02-25T06:46:12.700Z,35.30
2018-02-25T06:48:41.284Z,35.50
2018-02-25T06:51:09.552Z,35.50
2018-02-25T06:53:37.840Z,35.50
2018-02-25T06:56:06.139Z,35.50
2018-02-25T06:58:34.453Z,35.50
2018-02-25T07:01:03.002Z,35.80
2018-02-25T07:03:31.263Z,35.70
2018-02-25T07:05:59.554Z,35.80
2018-02-25T07:08:27.851Z,35.80
2018-02-25T07:10:56.904Z,36.00
2018-02-25T07:13:25.186Z,35.90
2018-02-25T07:15:53.448Z,36.00
2018-02-25T07:18:21.771Z,36.10
2018-02-25T07:20:50.805Z,36.20
2018-02-25T07:23:19.071Z,36.20
2018-02-25T07:25:47.482Z,36.30
2018-02-25T07:28:15.766Z,36.40
2018-02-25T07:30:44.348Z,36.50
2018-02-25T07:33:12.619Z,36.50
2018-02-25T07:35:40.920Z,36.50
2018-02-25T07:38:09.196Z,36.50
2018-02-25T07:40:37.469Z,36.70
2018-02-25T07:43:05.829Z,36.70
2018-02-25T07:45:34.141Z,36.70
2018-02-25T07:48:02.456Z,36.80
2018-02-25T07:50:30.778Z,36.70
2018-02-25T07:52:59.118Z,36.80
2018-02-25T07:55:28.149Z,37.10
2018-02-25T07:57:56.480Z,37.60
2018-02-25T08:00:25.417Z,37.00
2018-02-25T08:02:54.020Z,37.10
2018-02-25T08:05:22.347Z,37.10
2018-02-25T08:07:52.302Z,37.20
2018-02-25T08:10:20.593Z,37.20
2018-02-25T08:12:48.851Z,37.10
2018-02-25T08:15:17.912Z,37.10
2018-02-25T08:17:46.197Z,37.10
2018-02-25T08:20:14.512Z,37.10
2018-02-25T08:22:42.846Z,37.10
2018-02-25T08:25:11.153Z,37.10
2018-02-25T08:27:39.435Z,37.00
2018-02-25T08:30:08.014Z,37.00
2018-02-25T08:32:36.319Z,36.80
2018-02-25T08:35:04.618Z,36.50
2018-02-25T08:37:33.703Z,36.30
2018-02-25T08:40:02.013Z,36.30
2018-02-25T08:42:30.346Z,36.50
2018-02-25T08:44:58.653Z,36.50
2018-02-25T08:47:27.729Z,36.50
2018-02-25T08:49:56.008Z,36.40
2018-02-25T08:52:24.605Z,36.30
2018-02-25T08:54:52.896Z,36.40
2018-02-25T08:57:21.937Z,36.20
2018-02-25T08:59:50.262Z,36.20
2018-02-25T09:02:19.295Z,36.00
2018-02-25T09:04:47.597Z,36.00
2018-02-25T09:07:15.863Z,36.50
2018-02-25T09:09:44.161Z,35.90
2018-02-25T09:12:12.500Z,35.80
2018-02-25T09:14:40.962Z,35.90
2018-02-25T09:17:10.021Z,35.60
2018-02-25T09:19:38.360Z,35.60
2018-02-25T09:22:06.633Z,35.40
2018-02-25T09:24:35.285Z,35.50
2018-02-25T09:27:04.316Z,35.50
2018-02-25T09:29:32.597Z,35.40
2018-02-25T09:32:00.911Z,35.30
2018-02-25T09:34:29.178Z,35.20
2018-02-25T09:36:57.485Z,35.00
2018-02-25T09:39:25.762Z,34.40
2018-02-25T09:44:50.530Z,34.10
2018-02-25T09:49:54.079Z,33.10
2018-02-25T09:52:23.243Z,32.80
2018-02-25T09:54:51.544Z,32.70
2018-02-25T09:57:19.831Z,32.50
2018-02-25T09:59:48.141Z,32.20
2018-02-25T10:02:23.209Z,32.00
2018-02-25T10:04:51.947Z,32.00
2018-02-25T10:07:20.197Z,31.40
2018-02-25T10:09:48.477Z,31.20
2018-02-25T10:12:16.795Z,30.60
2018-02-25T10:14:45.065Z,30.50
2018-02-25T10:17:13.402Z,30.50
2018-02-25T10:19:41.681Z,30.10
2018-02-25T10:22:09.980Z,30.00
2018-02-25T10:24:38.274Z,30.00
2018-02-25T10:27:06.850Z,29.70
2018-02-25T10:29:35.128Z,29.70
2018-02-25T10:32:03.454Z,29.70
2018-02-25T10:34:32.681Z,29.90
2018-02-25T10:37:00.950Z,29.60
2018-02-25T10:39:29.350Z,29.50
2018-02-25T10:41:57.630Z,29.30
2018-02-25T10:44:27.486Z,29.10
2018-02-25T10:46:56.542Z,28.90
2018-02-25T10:49:24.810Z,28.90
2018-02-25T10:51:53.119Z,28.60
2018-02-25T10:54:21.440Z,28.70
2018-02-25T10:56:49.731Z,28.60
2018-02-25T10:59:17.990Z,28.50
2018-02-25T11:01:46.373Z,28.20
2018-02-25T11:04:14.723Z,28.30
2018-02-25T11:06:43.047Z,28.60
2018-02-25T11:09:11.359Z,28.70
2018-02-25T11:11:40.381Z,28.70
2018-02-25T11:14:09.424Z,28.80
2018-02-25T11:16:37.711Z,28.80
2018-02-25T11:19:06.175Z,28.70
2018-02-25T11:21:34.451Z,28.90
2018-02-25T11:24:02.774Z,28.80
2018-02-25T11:26:31.043Z,28.90
2018-02-25T11:28:59.369Z,28.60
2018-02-25T11:31:28.581Z,28.50
2018-02-25T11:33:57.340Z,28.50
2018-02-25T11:36:26.390Z,28.30
2018-02-25T11:38:56.059Z,28.30
2018-02-25T11:41:24.404Z,28.50
2018-02-25T11:43:52.671Z,28.40
2018-02-25T11:46:21.025Z,28.50
2018-02-25T11:48:49.320Z,28.30
2018-02-25T11:51:22.989Z,28.50
2018-02-25T11:53:52.017Z,29.30
2018-02-25T11:56:27.653Z,29.30
2018-02-25T11:58:56.772Z,29.30
2018-02-25T12:01:25.105Z,29.80
2018-02-25T12:03:53.391Z,28.60
2018-02-25T12:06:22.881Z,28.20
2018-02-25T12:08:51.909Z,27.80
2018-02-25T12:11:20.862Z,27.80
2018-02-25T12:13:49.184Z,27.50
2018-02-25T12:16:18.285Z,28.30
2018-02-25T12:18:46.625Z,28.20
2018-02-25T12:21:15.912Z,26.70
2018-02-25T12:23:46.377Z,26.20
2018-02-25T12:26:14.683Z,25.70
2018-02-25T12:28:43.023Z,25.20
2018-02-25T12:31:12.001Z,25.00
2018-02-25T12:33:40.881Z,24.70
2018-02-25T12:36:09.915Z,23.30
2018-02-25T12:38:38.481Z,23.30
2018-02-25T12:41:06.820Z,23.10
2018-02-25T12:43:35.045Z,23.20
2018-02-25T12:46:03.362Z,22.90
2018-02-25T12:48:33.989Z,22.80
2018-02-25T12:51:02.326Z,22.30
2018-02-25T12:53:31.396Z,21.40
2018-02-25T12:55:59.710Z,21.50
2018-02-25T12:58:28.312Z,20.80
2018-02-25T13:00:56.644Z,19.60
2018-02-25T13:03:25.027Z,19.70
2018-02-25T13:05:53.283Z,28.00
2018-02-25T13:08:21.601Z,29.10
2018-02-25T13:10:50.246Z,25.50
2018-02-25T13:13:18.524Z,24.10
2018-02-25T13:15:46.839Z,22.00
2018-02-25T13:18:15.937Z,20.60
2018-02-25T13:20:44.991Z,20.70
2018-02-25T13:23:13.605Z,20.70
2018-02-25T13:25:42.753Z,19.50
2018-02-25T13:28:11.855Z,18.90
2018-02-25T13:30:40.892Z,18.80
2018-02-25T13:33:09.992Z,18.50
2018-02-25T13:35:38.749Z,18.80
2018-02-25T13:38:07.034Z,18.40
2018-02-25T13:40:36.133Z,18.00
2018-02-25T13:43:04.500Z,17.50
2018-02-25T13:45:32.762Z,16.80
2018-02-25T13:48:01.080Z,16.40
2018-02-25T13:50:29.365Z,16.00
2018-02-25T13:52:57.813Z,15.70
2018-02-25T13:55:26.131Z,16.30
2018-02-25T13:57:55.209Z,16.90
2018-02-25T14:00:24.999Z,17.20
2018-02-25T14:02:53.306Z,17.20
2018-02-25T14:05:21.621Z,17.90
2018-02-25T14:07:49.917Z,18.00
2018-02-25T14:10:19.051Z,17.50
2018-02-25T14:12:47.424Z,17.40
2018-02-25T14:15:15.718Z,17.40
2018-02-25T14:17:44.053Z,17.60
2018-02-25T14:20:12.902Z,17.80
2018-02-25T14:22:41.210Z,18.20
2018-02-25T14:25:09.545Z,18.20
2018-02-25T14:27:38.649Z,18.60
2018-02-25T14:30:26.431Z,18.50
2018-02-25T14:33:04.790Z,18.60
2018-02-25T14:35:41.542Z,18.70
2018-02-25T14:38:13.035Z,18.80
2018-02-25T14:40:50.515Z,19.10
2018-02-25T14:43:24.631Z,19.00
2018-02-25T14:46:08.133Z,19.00
2018-02-25T14:48:43.438Z,19.10
2018-02-25T14:51:24.302Z,19.30
2018-02-25T14:56:29.642Z,19.20
2018-02-25T14:58:58.224Z,19.50
2018-02-25T15:01:26.549Z,19.50
2018-02-25T15:03:58.740Z,19.60
2018-02-25T15:06:27.013Z,19.70
2018-02-25T15:08:55.317Z,19.80
2018-02-25T15:11:23.607Z,20.00
2018-02-25T15:13:52.192Z,19.90
2018-02-25T15:16:20.497Z,20.00
2018-02-25T15:18:49.536Z,20.30
2018-02-25T15:21:18.164Z,20.30
2018-02-25T15:23:46.442Z,20.40
2018-02-25T15:26:15.533Z,20.60
2018-02-25T15:28:44.669Z,20.60
2018-02-25T15:31:12.941Z,20.60
2018-02-25T15:33:43.185Z,20.70
2018-02-25T15:36:11.480Z,20.70
2018-02-25T15:38:39.770Z,20.80
2018-02-25T15:41:08.109Z,20.80
2018-02-25T15:43:36.378Z,20.90
2018-02-25T15:46:04.806Z,21.00
2018-02-25T15:48:33.470Z,21.10
2018-02-25T15:51:01.793Z,21.20
2018-02-25T15:53:30.869Z,21.30
2018-02-25T15:55:59.698Z,21.20
2018-02-25T15:58:28.764Z,21.40
2018-02-25T16:00:57.070Z,21.40
2018-02-25T16:03:25.400Z,21.40
2018-02-25T16:05:55.473Z,22.00
2018-02-25T16:08:24.534Z,21.70
2018-02-25T16:10:52.859Z,21.60
2018-02-25T16:13:21.183Z,21.70
2018-02-25T16:15:49.471Z,21.70
2018-02-25T16:18:18.058Z,21.70
2018-02-25T16:20:47.163Z,22.00
2018-02-25T16:23:15.470Z,22.00
2018-02-25T16:25:44.178Z,22.00
2018-02-25T16:28:12.644Z,22.10
2018-02-25T16:30:40.955Z,22.10
2018-02-25T16:33:09.225Z,22.10
2018-02-25T16:35:37.973Z,22.20
2018-02-25T16:38:07.011Z,22.20
2018-02-25T16:40:39.196Z,22.30
2018-02-25T16:43:07.505Z,22.30
2018-02-25T16:45:35.777Z,22.30
2018-02-25T16:48:04.108Z,22.30
2018-02-25T16:50:32.558Z,22.30
2018-02-25T16:53:00.900Z,22.30
2018-02-25T16:55:29.188Z,22.40
2018-02-25T16:57:57.548Z,22.30
2018-02-25T17:00:25.855Z,22.30
2018-02-25T17:02:54.524Z,22.30
2018-02-25T17:05:22.831Z,22.40
2018-02-25T17:07:52.824Z,22.40
2018-02-25T17:10:21.170Z,22.40
2018-02-25T17:12:49.456Z,22.50
2018-02-25T17:15:18.022Z,22.50
2018-02-25T17:17:46.285Z,22.60
2018-02-25T17:20:14.620Z,22.70
2018-02-25T17:22:42.960Z,22.80
2018-02-25T17:25:11.251Z,22.80
2018-02-25T17:27:39.849Z,22.90
2018-02-25T17:30:08.174Z,23.00
2018-02-25T17:32:37.258Z,23.10
2018-02-25T17:35:06.342Z,23.10
2018-02-25T17:37:35.622Z,23.10
2018-02-25T17:40:06.853Z,23.10
2018-02-25T17:42:35.148Z,23.20
2018-02-25T17:45:04.169Z,23.20
2018-02-25T17:47:32.447Z,23.30
2018-02-25T17:50:01.855Z,23.40
2018-02-25T17:52:31.876Z,23.40
2018-02-25T17:55:00.247Z,23.50
2018-02-25T17:57:29.339Z,23.50
2018-02-25T17:59:57.616Z,23.50
2018-02-25T18:02:26.691Z,23.70
2018-02-25T18:04:55.077Z,23.60
2018-02-25T18:07:24.290Z,23.60
2018-02-25T18:09:52.743Z,23.70
2018-02-25T18:12:21.066Z,23.80
2018-02-25T18:14:50.155Z,24.10
2018-02-25T18:17:19.327Z,24.10
2018-02-25T18:19:48.787Z,24.10
2018-02-25T18:22:17.886Z,24.20
2018-02-25T18:24:47.217Z,24.20
2018-02-25T18:27:15.670Z,24.30
2018-02-25T18:29:43.951Z,24.40
2018-02-25T18:32:12.319Z,24.50
2018-02-25T18:34:40.587Z,24.50
2018-02-25T18:37:08.916Z,24.60
2018-02-25T18:39:37.239Z,24.60
2018-02-25T18:42:06.028Z,24.70
2018-02-25T18:44:34.382Z,24.70
2018-02-25T18:47:02.688Z,24.80
2018-02-25T18:49:31.793Z,25.30
2018-02-25T18:52:00.867Z,24.90
2018-02-25T18:54:29.161Z,24.90
2018-02-25T18:56:59.070Z,24.80
2018-02-25T18:59:28.433Z,24.80
2018-02-25T19:01:57.456Z,24.90
2018-02-25T19:04:25.799Z,24.90
2018-02-25T19:06:54.119Z,24.90
2018-02-25T19:09:22.395Z,25.00
2018-02-25T19:11:52.135Z,25.20
2018-02-25T19:14:21.244Z,25.10
2018-02-25T19:16:49.677Z,25.00
2018-02-25T19:19:18.081Z,25.10
2018-02-25T19:21:47.137Z,25.20
2018-02-25T19:24:16.253Z,25.20
2018-02-25T19:26:45.529Z,25.10
2018-02-25T19:29:15.551Z,25.20
2018-02-25T19:31:43.922Z,25.10
2018-02-25T19:34:12.540Z,25.00
2018-02-25T19:36:46.529Z,25.00
2018-02-25T19:42:18.339Z,25.00
2018-02-25T19:44:47.088Z,25.00
2018-02-25T19:47:15.477Z,25.00
2018-02-25T19:49:43.774Z,25.20
2018-02-25T19:52:12.116Z,25.20
2018-02-25T19:54:40.549Z,25.20
2018-02-25T19:57:09.546Z,25.30
2018-02-25T19:59:38.646Z,25.20
2018-02-25T20:02:08.064Z,25.30
2018-02-25T20:04:36.435Z,25.30
2018-02-25T20:07:04.785Z,25.30
2018-02-25T20:09:33.139Z,25.40
2018-02-25T20:12:01.518Z,25.40
2018-02-25T20:14:29.880Z,25.40
2018-02-25T20:16:58.261Z,25.50
2018-02-25T20:19:26.885Z,25.50
2018-02-25T20:21:56.143Z,25.60
2018-02-25T20:24:24.654Z,25.50
2018-02-25T20:26:53.028Z,25.60
2018-02-25T20:29:21.353Z,25.70
2018-02-25T20:31:50.658Z,25.80
2018-02-25T20:34:19.233Z,25.70
2018-02-25T20:36:47.621Z,25.80
2018-02-25T20:39:16.091Z,25.70
2018-02-25T20:41:44.997Z,25.70
2018-02-25T20:44:13.532Z,25.80
2018-02-25T20:46:42.204Z,25.90
2018-02-25T20:49:10.840Z,25.90
2018-02-25T20:51:40.122Z,25.90
2018-02-25T20:54:09.043Z,25.90
2018-02-25T20:56:38.788Z,26.00
2018-02-25T20:59:07.524Z,26.10
2018-02-25T21:01:35.823Z,26.10
2018-02-25T21:04:04.186Z,26.10
2018-02-25T21:06:32.688Z,26.10
2018-02-25T21:09:01.603Z,26.20
2018-02-25T21:11:29.999Z,26.10
2018-02-25T21:13:58.301Z,26.20
2018-02-25T21:16:27.025Z,26.10
2018-02-25T21:18:56.122Z,26.10
2018-02-25T21:21:25.210Z,26.30
2018-02-25T21:23:53.765Z,26.30
2018-02-25T21:26:22.339Z,26.60
2018-02-25T21:28:50.674Z,26.40
2018-02-25T21:31:19.767Z,26.50
2018-02-25T21:33:48.851Z,26.40
2018-02-25T21:36:17.151Z,26.40
2018-02-25T21:38:45.448Z,26.50
2018-02-25T21:41:13.907Z,27.10
2018-02-25T21:43:43.398Z,26.80
2018-02-25T21:46:11.730Z,26.70
2018-02-25T21:48:40.154Z,26.80
2018-02-25T21:51:09.358Z,26.80
2018-02-25T21:53:41.568Z,26.80
2018-02-25T21:56:15.736Z,26.80
2018-02-25T21:58:49.849Z,26.80
2018-02-25T22:01:23.958Z,26.90
2018-02-25T22:03:58.002Z,27.00
2018-02-25T22:06:26.346Z,27.10
2018-02-25T22:08:54.664Z,27.20
2018-02-25T22:11:22.999Z,27.30
2018-02-25T22:13:51.290Z,27.50
2018-02-25T22:16:19.649Z,27.50
2018-02-25T22:18:47.943Z,27.10
2018-02-25T22:21:16.285Z,27.60
2018-02-25T22:23:44.607Z,27.60
2018-02-25T22:26:14.801Z,27.60
2018-02-25T22:28:43.097Z,27.60
2018-02-25T22:31:11.360Z,27.50
2018-02-25T22:33:40.207Z,27.60
2018-02-25T22:36:08.483Z,27.60
2018-02-25T22:38:37.163Z,27.70
2018-02-25T22:41:06.263Z,27.80
2018-02-25T22:43:34.546Z,27.80
2018-02-25T22:46:02.866Z,27.80
2018-02-25T22:48:31.279Z,27.80
2018-02-25T22:51:00.431Z,28.00
2018-02-25T22:53:28.747Z,28.00
2018-02-25T22:55:57.156Z,28.00
2018-02-25T22:58:26.201Z,28.10
2018-02-25T23:00:54.753Z,28.00
2018-02-25T23:03:23.029Z,28.10
2018-02-25T23:05:51.313Z,28.10
2018-02-25T23:08:19.624Z,28.30
2018-02-25T23:10:47.918Z,28.30
2018-02-25T23:13:16.206Z,28.40
2018-02-25T23:15:45.253Z,28.40
2018-02-25T23:18:13.891Z,28.40
2018-02-25T23:20:42.917Z,28.90
2018-02-25T23:23:11.256Z,28.40
2018-02-25T23:25:39.584Z,28.40
2018-02-25T23:28:07.889Z,28.50
2018-02-25T23:30:36.173Z,28.40
2018-02-25T23:33:04.447Z,28.50
2018-02-25T23:35:32.745Z,28.50
2018-02-25T23:38:01.035Z,28.50
2018-02-25T23:40:29.611Z,28.50
2018-02-25T23:42:57.894Z,28.50
2018-02-25T23:45:26.930Z,28.70
2018-02-25T23:47:55.290Z,28.60
2018-02-25T23:50:23.533Z,28.70
2018-02-25T23:52:56.827Z,28.90
2018-02-25T23:55:25.145Z,29.00
2018-02-25T23:57:53.461Z,29.10
